Time;durP1;ratioP1;P1;durP2;ratioP2;P2;SDS_P1;SDS_P2;PMS_P1;PMS_P2;Temp;Humidity;BMP_temperature;BMP_pressure;BME280_temperature;BME280_humidity;BME280_pressure;Samples;Min_cycle;Max_cycle;Signal;HPM_P1;HPM_P2
2023/07/01 00:00:36;;;;;;;21.73;16.55;;;;;;;18.59;100.00;97699.84;2583986;28;20046;-86
2023/07/01 00:02:15;;;;;;;23.80;15.70;;;;;;;18.60;100.00;97696.22;2584192;28;20295;-87
2023/07/01 00:03:30;;;;;;;22.13;15.23;;;;;;;18.63;100.00;97688.88;2584505;28;20042;-88
2023/07/01 00:04:46;;;;;;;24.25;16.67;;;;;;;18.69;100.00;97698.19;2583350;28;20050;-86
2023/07/01 00:06:02;;;;;;;24.75;16.08;;;;;;;18.72;100.00;97695.31;2583729;28;20124;-88
2023/07/01 00:07:17;;;;;;;27.55;16.40;;;;;;;18.61;100.00;97692.59;2584729;28;20071;-86
2023/07/01 00:08:33;;;;;;;23.73;15.98;;;;;;;18.71;100.00;97690.13;2584054;28;20409;-86
2023/07/01 00:09:48;;;;;;;24.45;16.13;;;;;;;18.70;100.00;97691.91;2585385;28;20332;-86
2023/07/01 00:11:05;;;;;;;24.55;17.02;;;;;;;18.72;100.00;97687.38;2584946;28;20081;-86
2023/07/01 00:12:20;;;;;;;26.42;16.33;;;;;;;18.57;100.00;97693.78;2583956;28;20054;-86
2023/07/01 00:13:36;;;;;;;23.42;16.48;;;;;;;18.35;100.00;97687.41;2583666;28;20057;-86
2023/07/01 00:14:51;;;;;;;24.92;17.17;;;;;;;18.52;100.00;97695.91;2584157;28;20045;-86
2023/07/01 00:16:07;;;;;;;26.02;16.30;;;;;;;18.60;100.00;97690.91;2583948;28;20073;-87
2023/07/01 00:17:22;;;;;;;27.20;17.52;;;;;;;18.44;100.00;97689.38;2584072;28;20046;-87
2023/07/01 00:18:40;;;;;;;25.58;16.80;;;;;;;18.47;100.00;97690.94;2583797;28;20042;-86
2023/07/01 00:19:55;;;;;;;25.02;16.13;;;;;;;18.57;100.00;97691.97;2585091;28;20104;-86
2023/07/01 00:21:11;;;;;;;21.45;15.27;;;;;;;18.57;100.00;97685.81;2583485;28;20105;-86
2023/07/01 00:22:27;;;;;;;28.75;16.63;;;;;;;18.56;100.00;97689.44;2584099;28;20457;-87
2023/07/01 00:23:42;;;;;;;21.33;15.13;;;;;;;18.53;100.00;97694.97;2583436;28;20053;-87
2023/07/01 00:24:58;;;;;;;27.67;15.88;;;;;;;18.49;100.00;97694.31;2584011;28;20069;-86
2023/07/01 00:26:14;;;;;;;30.02;16.42;;;;;;;18.48;100.00;97701.44;2585252;28;20108;-87
2023/07/01 00:27:29;;;;;;;21.98;15.82;;;;;;;18.55;100.00;97699.19;2584562;28;20463;-86
2023/07/01 00:28:45;;;;;;;26.92;16.92;;;;;;;18.66;100.00;97694.94;2584968;28;20053;-87
2023/07/01 00:30:00;;;;;;;23.33;15.73;;;;;;;18.70;100.00;97688.44;2584070;28;20078;-86
2023/07/01 00:31:16;;;;;;;27.67;16.00;;;;;;;18.73;100.00;97686.41;2583137;28;20229;-86
2023/07/01 00:32:31;;;;;;;25.20;16.48;;;;;;;18.70;100.00;97681.31;2583123;28;20057;-87
2023/07/01 00:33:47;;;;;;;24.70;16.27;;;;;;;18.71;100.00;97688.28;2584075;28;20046;-87
2023/07/01 00:35:03;;;;;;;24.05;16.65;;;;;;;18.48;100.00;97690.00;2583497;28;20403;-87
2023/07/01 00:36:18;;;;;;;30.25;16.70;;;;;;;18.69;100.00;97684.91;2583543;28;20042;-87
2023/07/01 00:37:34;;;;;;;25.05;16.90;;;;;;;18.71;100.00;97682.16;2584845;28;20046;-88
2023/07/01 00:38:49;;;;;;;28.90;17.05;;;;;;;18.63;100.00;97683.56;2583841;28;20053;-86
2023/07/01 00:40:05;;;;;;;22.60;16.02;;;;;;;18.57;100.00;97680.50;2585088;28;20124;-86
2023/07/01 00:41:21;;;;;;;26.08;16.63;;;;;;;18.56;100.00;97679.69;2583852;28;20182;-86
2023/07/01 00:42:37;;;;;;;26.42;16.95;;;;;;;18.60;100.00;97686.44;2583742;28;20502;-86
2023/07/01 00:43:52;;;;;;;24.05;16.70;;;;;;;18.64;100.00;97679.13;2583689;28;20653;-86
2023/07/01 00:45:08;;;;;;;25.95;17.10;;;;;;;18.66;100.00;97682.50;2584514;28;20046;-87
2023/07/01 00:46:24;;;;;;;28.02;15.90;;;;;;;18.65;100.00;97678.16;2583359;28;20042;-86
2023/07/01 00:47:40;;;;;;;23.48;15.93;;;;;;;18.71;100.00;97680.34;2582860;28;20133;-86
2023/07/01 00:48:56;;;;;;;25.52;17.25;;;;;;;18.70;100.00;97677.81;2584887;28;20043;-86
2023/07/01 00:50:13;;;;;;;26.95;17.13;;;;;;;18.67;100.00;97678.06;2582747;28;20057;-86
2023/07/01 00:51:29;;;;;;;26.88;17.48;;;;;;;18.46;100.00;97684.81;2583948;28;20124;-86
2023/07/01 00:52:46;;;;;;;22.27;16.23;;;;;;;18.42;100.00;97683.31;2583711;28;20050;-85
2023/07/01 00:54:02;;;;;;;23.45;16.05;;;;;;;18.36;100.00;97683.78;2584121;28;20553;-87
2023/07/01 00:55:18;;;;;;;22.98;16.45;;;;;;;18.31;100.00;97681.47;2583178;28;20054;-86
2023/07/01 00:56:33;;;;;;;24.40;16.33;;;;;;;18.29;100.00;97682.53;2595598;28;20127;-86
2023/07/01 00:57:51;;;;;;;25.73;16.17;;;;;;;18.18;100.00;97681.50;2590320;28;20054;-86
2023/07/01 00:59:07;;;;;;;26.67;16.30;;;;;;;18.28;100.00;97680.81;2584216;28;20052;-87
2023/07/01 01:00:22;;;;;;;30.65;16.75;;;;;;;18.33;100.00;97673.41;2583871;28;20049;-86
2023/07/01 01:01:44;;;;;;;27.10;15.88;;;;;;;18.33;100.00;97678.72;2584354;28;20071;-86
2023/07/01 01:03:21;;;;;;;27.65;15.40;;;;;;;18.34;100.00;97669.81;2583597;28;20074;-86
2023/07/01 01:04:44;;;;;;;23.13;15.13;;;;;;;18.36;100.00;97673.19;2583693;28;20513;-86
2023/07/01 01:06:06;;;;;;;26.63;16.50;;;;;;;18.48;100.00;97671.44;2583948;28;20081;-86
2023/07/01 01:07:36;;;;;;;25.15;16.20;;;;;;;18.51;100.00;97673.03;2583758;28;20053;-87
2023/07/01 01:09:00;;;;;;;27.63;16.23;;;;;;;18.45;100.00;97669.00;2584053;28;20195;-86
2023/07/01 01:10:22;;;;;;;24.80;15.55;;;;;;;18.49;100.00;97666.03;2583334;28;20117;-86
2023/07/01 01:11:44;;;;;;;26.70;15.77;;;;;;;18.31;100.00;97670.03;2583456;28;20093;-88
2023/07/01 01:13:04;;;;;;;25.67;16.52;;;;;;;18.31;100.00;97670.03;2583010;28;20065;-87
2023/07/01 01:14:21;;;;;;;26.80;16.35;;;;;;;18.39;100.00;97677.44;2583548;28;20050;-87
2023/07/01 01:15:38;;;;;;;24.13;16.23;;;;;;;18.48;100.00;97682.91;2584268;28;20096;-88
2023/07/01 01:16:56;;;;;;;26.35;17.33;;;;;;;18.48;100.00;97677.59;2583527;28;20046;-88
2023/07/01 01:18:16;;;;;;;25.23;15.95;;;;;;;18.63;100.00;97677.44;2583432;28;20050;-88
2023/07/01 01:19:56;;;;;;;23.75;15.07;;;;;;;18.67;100.00;97667.44;2583781;28;20088;-88
2023/07/01 01:21:15;;;;;;;22.33;15.10;;;;;;;18.68;100.00;97669.16;2584399;28;20053;-89
2023/07/01 01:22:37;;;;;;;23.83;15.23;;;;;;;18.75;100.00;97675.66;2583276;28;20050;-89
2023/07/01 01:23:59;;;;;;;24.70;16.80;;;;;;;18.64;100.00;97673.81;2582670;28;20038;-88
2023/07/01 01:25:29;;;;;;;26.00;15.82;;;;;;;18.72;100.00;97675.91;2584200;28;20077;-88
2023/07/01 01:26:49;;;;;;;22.65;15.60;;;;;;;18.55;100.00;97670.03;2584189;28;20042;-88
2023/07/01 01:28:05;;;;;;;23.85;15.80;;;;;;;18.43;100.00;97679.72;2583739;28;20096;-88
2023/07/01 01:29:21;;;;;;;23.27;15.85;;;;;;;18.42;100.00;97674.53;2584053;28;20121;-87
2023/07/01 01:30:37;;;;;;;22.55;16.08;;;;;;;18.43;100.00;97669.13;2583781;28;20050;-90
2023/07/01 01:31:53;;;;;;;26.98;15.25;;;;;;;18.61;100.00;97671.41;2584087;28;20771;-88
2023/07/01 01:33:09;;;;;;;26.38;16.73;;;;;;;18.60;100.00;97672.34;2583379;28;20124;-88
2023/07/01 01:34:24;;;;;;;23.70;15.40;;;;;;;18.59;100.00;97665.38;2583075;28;20043;-89
2023/07/01 01:35:40;;;;;;;21.30;15.18;;;;;;;18.63;100.00;97669.47;2583025;28;20430;-89
2023/07/01 01:37:01;;;;;;;21.02;14.60;;;;;;;18.71;100.00;97667.09;2584066;28;20046;-88
2023/07/01 01:38:20;;;;;;;20.95;15.40;;;;;;;18.74;100.00;97666.88;2583786;28;20057;-89
2023/07/01 01:39:43;;;;;;;19.33;13.68;;;;;;;18.68;100.00;97662.03;2582738;28;20108;-88
2023/07/01 01:41:11;;;;;;;23.42;16.42;;;;;;;18.68;100.00;97656.72;2582936;28;20050;-89
2023/07/01 01:42:30;;;;;;;21.38;15.00;;;;;;;18.69;100.00;97658.41;2583273;28;20081;-88
2023/07/01 01:43:56;;;;;;;22.10;14.98;;;;;;;18.66;100.00;97653.34;2582438;28;20074;-88
2023/07/01 01:45:16;;;;;;;22.67;14.88;;;;;;;18.42;100.00;97653.34;2582914;28;20049;-89
2023/07/01 01:46:34;;;;;;;20.63;14.98;;;;;;;18.53;100.00;97656.06;2584981;28;20144;-88
2023/07/01 01:47:51;;;;;;;20.05;14.23;;;;;;;18.63;100.00;97658.88;2582425;28;20070;-88
2023/07/01 01:49:11;;;;;;;20.40;14.98;;;;;;;18.60;100.00;97661.75;2583020;28;20169;-88
2023/07/01 01:50:27;;;;;;;23.73;15.48;;;;;;;18.64;100.00;97658.75;2583098;28;20132;-88
2023/07/01 01:51:43;;;;;;;22.63;15.73;;;;;;;18.61;100.00;97660.78;2583758;28;20054;-88
2023/07/01 01:53:01;;;;;;;22.38;15.10;;;;;;;18.67;100.00;97659.50;2583261;28;20049;-88
2023/07/01 01:54:17;;;;;;;26.27;16.25;;;;;;;18.65;100.00;97664.91;2582733;28;20133;-88
2023/07/01 01:55:33;;;;;;;24.95;15.93;;;;;;;18.66;100.00;97661.28;2583088;28;20112;-89
2023/07/01 01:56:51;;;;;;;19.80;13.60;;;;;;;18.62;100.00;97659.84;2582461;28;20368;-88
2023/07/01 01:58:07;;;;;;;22.05;15.50;;;;;;;18.56;100.00;97663.78;2583349;28;20046;-87
2023/07/01 01:59:22;;;;;;;21.25;15.05;;;;;;;18.58;100.00;97661.84;2582236;28;20076;-87
2023/07/01 02:00:38;;;;;;;22.55;14.88;;;;;;;18.73;100.00;97659.03;2583914;28;20041;-88
2023/07/01 02:01:55;;;;;;;23.95;15.60;;;;;;;18.65;100.00;97656.94;2583625;28;20045;-87
2023/07/01 02:03:10;;;;;;;21.98;15.43;;;;;;;18.67;100.00;97665.63;2582836;28;20474;-88
2023/07/01 02:04:26;;;;;;;21.25;15.27;;;;;;;18.63;100.00;97658.88;2582749;28;20058;-89
2023/07/01 02:05:42;;;;;;;21.80;15.30;;;;;;;18.59;100.00;97655.59;2582733;28;20100;-87
2023/07/01 02:06:57;;;;;;;23.23;15.50;;;;;;;18.66;100.00;97657.81;2582927;28;20092;-90
2023/07/01 02:08:13;;;;;;;20.70;14.80;;;;;;;18.67;100.00;97660.34;2582802;28;20478;-88
2023/07/01 02:09:28;;;;;;;22.23;15.57;;;;;;;18.58;100.00;97651.25;2584253;28;20406;-89
2023/07/01 02:10:44;;;;;;;26.20;15.35;;;;;;;18.56;100.00;97657.63;2583107;28;20539;-88
2023/07/01 02:12:00;;;;;;;24.13;15.90;;;;;;;18.59;100.00;97652.13;2582431;28;20132;-88
2023/07/01 02:13:15;;;;;;;22.48;15.63;;;;;;;18.60;100.00;97653.81;2582712;28;20100;-89
2023/07/01 02:14:31;;;;;;;24.98;16.30;;;;;;;18.48;100.00;97644.94;2582806;28;20045;-88
2023/07/01 02:15:46;;;;;;;26.15;15.35;;;;;;;18.48;100.00;97643.13;2582361;28;20283;-87
2023/07/01 02:17:02;;;;;;;21.17;13.68;;;;;;;18.52;100.00;97651.72;2582515;28;20127;-88
2023/07/01 02:18:18;;;;;;;20.60;14.10;;;;;;;18.54;100.00;97646.28;2584426;28;20050;-88
2023/07/01 02:19:33;;;;;;;20.67;14.23;;;;;;;18.56;100.00;97647.00;2583032;28;20053;-88
2023/07/01 02:20:49;;;;;;;18.10;14.05;;;;;;;18.57;100.00;97641.63;2581879;28;20783;-88
2023/07/01 02:22:04;;;;;;;24.00;15.32;;;;;;;18.53;100.00;97645.47;2581889;28;20062;-88
2023/07/01 02:23:20;;;;;;;22.13;15.40;;;;;;;18.55;100.00;97651.50;2584074;28;20042;-89
2023/07/01 02:24:35;;;;;;;24.30;15.57;;;;;;;18.49;100.00;97647.47;2584132;28;20042;-88
2023/07/01 02:25:51;;;;;;;20.77;15.13;;;;;;;18.41;100.00;97644.53;2583802;28;20618;-88
2023/07/01 02:27:08;;;;;;;21.33;15.35;;;;;;;18.35;100.00;97658.25;2583759;28;20050;-88
2023/07/01 02:28:23;;;;;;;21.58;14.93;;;;;;;18.28;100.00;97655.19;2585208;28;20098;-88
2023/07/01 02:29:39;;;;;;;22.67;15.80;;;;;;;18.24;100.00;97660.81;2582705;28;20275;-88
2023/07/01 02:30:54;;;;;;;26.13;14.85;;;;;;;18.26;100.00;97654.47;2581451;28;20069;-88
2023/07/01 02:32:10;;;;;;;22.25;16.02;;;;;;;18.33;100.00;97660.16;2582006;28;20406;-88
2023/07/01 02:33:25;;;;;;;23.77;15.30;;;;;;;18.14;100.00;97653.53;2582961;28;20050;-87
2023/07/01 02:34:41;;;;;;;23.35;16.65;;;;;;;18.13;100.00;97651.84;2587443;28;20437;-88
2023/07/01 02:35:57;;;;;;;23.73;16.77;;;;;;;18.14;100.00;97650.88;2586125;28;20112;-88
2023/07/01 02:37:13;;;;;;;30.08;16.15;;;;;;;18.12;100.00;97658.09;2583611;28;20076;-88
2023/07/01 02:38:28;;;;;;;23.80;15.95;;;;;;;18.28;100.00;97654.34;2582485;28;20073;-88
2023/07/01 02:39:46;;;;;;;27.85;17.05;;;;;;;18.35;100.00;97656.44;2583803;28;20050;-88
2023/07/01 02:41:01;;;;;;;25.45;15.25;;;;;;;18.30;100.00;97652.41;2583446;28;20129;-88
2023/07/01 02:42:21;;;;;;;23.98;15.90;;;;;;;18.25;100.00;97658.06;2583842;28;21166;-87
2023/07/01 02:43:37;;;;;;;27.85;17.90;;;;;;;18.36;100.00;97651.97;2584928;28;20054;-88
2023/07/01 02:44:52;;;;;;;23.67;17.15;;;;;;;18.33;100.00;97655.69;2582685;28;20054;-87
2023/07/01 02:46:08;;;;;;;22.52;15.85;;;;;;;18.30;100.00;97649.75;2584915;28;20109;-88
2023/07/01 02:47:23;;;;;;;27.33;16.48;;;;;;;18.34;100.00;97648.59;2583788;28;20061;-88
2023/07/01 02:48:39;;;;;;;22.55;16.30;;;;;;;18.29;100.00;97648.06;2583068;28;20047;-88
2023/07/01 02:49:54;;;;;;;24.08;16.52;;;;;;;18.24;100.00;97642.28;2584471;28;20053;-88
2023/07/01 02:51:10;;;;;;;26.42;16.73;;;;;;;18.11;100.00;97644.97;2582802;28;20046;-88
2023/07/01 02:52:25;;;;;;;26.35;16.88;;;;;;;18.17;100.00;97642.72;2582570;28;20280;-88
2023/07/01 02:53:41;;;;;;;24.48;16.45;;;;;;;18.25;100.00;97643.97;2583427;28;20061;-88
2023/07/01 02:54:56;;;;;;;28.05;17.92;;;;;;;18.28;100.00;97646.38;2581578;28;20050;-88
2023/07/01 02:56:13;;;;;;;28.02;16.98;;;;;;;18.28;100.00;97651.69;2582333;28;20077;-88
2023/07/01 02:57:28;;;;;;;31.73;17.73;;;;;;;18.23;100.00;97652.03;2582978;28;20579;-88
2023/07/01 02:58:44;;;;;;;28.17;17.35;;;;;;;18.37;100.00;97651.03;2582548;28;20101;-88
2023/07/01 02:59:59;;;;;;;28.88;18.50;;;;;;;18.30;100.00;97655.94;2582916;28;20097;-87
2023/07/01 03:01:15;;;;;;;31.55;17.92;;;;;;;18.33;100.00;97647.75;2583374;28;20493;-88
2023/07/01 03:02:30;;;;;;;31.02;17.77;;;;;;;18.44;100.00;97651.44;2583531;28;20050;-87
2023/07/01 03:03:49;;;;;;;30.63;18.73;;;;;;;18.46;100.00;97650.38;2581848;28;20046;-88
2023/07/01 03:05:07;;;;;;;31.75;17.95;;;;;;;18.40;100.00;97649.97;2583167;28;20088;-88
2023/07/01 03:06:23;;;;;;;29.67;16.77;;;;;;;18.34;100.00;97656.56;2582700;28;20069;-88
2023/07/01 03:07:39;;;;;;;29.65;16.58;;;;;;;18.08;100.00;97659.28;2582412;28;20053;-88
2023/07/01 03:08:54;;;;;;;25.25;16.85;;;;;;;18.09;100.00;97655.66;2584614;28;20085;-88
2023/07/01 03:10:09;;;;;;;28.55;16.60;;;;;;;18.07;100.00;97654.94;2580808;28;20053;-87
2023/07/01 03:11:25;;;;;;;28.25;17.17;;;;;;;18.03;100.00;97666.72;2582156;28;20085;-87
2023/07/01 03:12:41;;;;;;;29.60;16.73;;;;;;;17.98;100.00;97663.50;2584976;28;20054;-87
2023/07/01 03:13:56;;;;;;;26.63;16.98;;;;;;;18.08;100.00;97659.28;2582533;28;20058;-87
2023/07/01 03:15:12;;;;;;;26.20;17.17;;;;;;;18.07;100.00;97652.28;2592143;28;20038;-88
2023/07/01 03:16:30;;;;;;;26.27;16.92;;;;;;;18.08;100.00;97664.56;2588299;28;20087;-87
2023/07/01 03:17:49;;;;;;;24.83;16.30;;;;;;;18.00;100.00;97662.44;2584352;28;20945;-87
2023/07/01 03:19:05;;;;;;;26.52;16.25;;;;;;;18.01;100.00;97655.31;2584362;28;20109;-88
2023/07/01 03:20:24;;;;;;;25.67;17.13;;;;;;;17.97;100.00;97652.06;2582779;28;20149;-88
2023/07/01 03:21:40;;;;;;;23.65;15.73;;;;;;;18.05;100.00;97654.19;2583135;28;20046;-87
2023/07/01 03:22:57;;;;;;;29.48;16.45;;;;;;;18.07;100.00;97644.34;2582732;28;20417;-88
2023/07/01 03:24:13;;;;;;;23.13;15.70;;;;;;;18.01;100.00;97652.69;2582117;28;20050;-87
2023/07/01 03:25:28;;;;;;;24.50;16.50;;;;;;;17.83;100.00;97654.84;2581931;28;20064;-88
2023/07/01 03:26:45;;;;;;;22.85;15.27;;;;;;;17.91;100.00;97656.00;2585085;28;20141;-87
2023/07/01 03:28:01;;;;;;;24.25;15.68;;;;;;;17.97;100.00;97657.38;2581626;28;20131;-87
2023/07/01 03:29:16;;;;;;;25.05;15.68;;;;;;;17.99;100.00;97657.25;2581458;28;20113;-88
2023/07/01 03:30:32;;;;;;;21.60;14.75;;;;;;;17.92;100.00;97656.81;2584244;28;20061;-87
2023/07/01 03:31:48;;;;;;;24.95;15.63;;;;;;;17.82;100.00;97659.28;2583491;28;20065;-88
2023/07/01 03:33:06;;;;;;;24.83;15.70;;;;;;;18.01;100.00;97658.84;2581767;28;20061;-88
2023/07/01 03:34:22;;;;;;;24.70;15.63;;;;;;;18.00;100.00;97669.53;2584408;28;20046;-87
2023/07/01 03:35:38;;;;;;;23.70;15.55;;;;;;;18.08;100.00;97659.28;2584345;28;20604;-88
2023/07/01 03:36:54;;;;;;;26.42;16.17;;;;;;;17.91;100.00;97660.44;2582548;28;20078;-87
2023/07/01 03:38:09;;;;;;;27.13;16.95;;;;;;;18.00;100.00;97666.88;2584548;28;20457;-88
2023/07/01 03:39:25;;;;;;;27.27;17.00;;;;;;;17.78;100.00;97668.41;2582315;28;20052;-89
2023/07/01 03:40:40;;;;;;;26.85;15.95;;;;;;;17.53;100.00;97680.69;2584648;28;20537;-88
2023/07/01 03:41:56;;;;;;;28.95;17.77;;;;;;;17.74;100.00;97674.84;2583733;28;20457;-89
2023/07/01 03:43:11;;;;;;;27.88;16.65;;;;;;;17.60;100.00;97679.34;2583176;28;20046;-88
2023/07/01 03:44:27;;;;;;;26.92;16.52;;;;;;;17.52;100.00;97673.72;2583142;28;20077;-87
2023/07/01 03:45:43;;;;;;;30.63;18.10;;;;;;;17.85;100.00;97672.31;2584614;28;20417;-87
2023/07/01 03:46:58;;;;;;;29.10;17.85;;;;;;;17.79;100.00;97672.75;2583792;28;20041;-87
2023/07/01 03:48:14;;;;;;;29.95;17.73;;;;;;;17.88;100.00;97669.47;2581477;28;20085;-88
2023/07/01 03:49:30;;;;;;;29.98;17.35;;;;;;;17.87;100.00;97670.38;2583667;28;20532;-88
2023/07/01 03:50:45;;;;;;;27.50;17.95;;;;;;;17.78;100.00;97663.13;2583203;28;20161;-87
2023/07/01 03:52:03;;;;;;;27.48;17.77;;;;;;;18.00;100.00;97661.59;2583828;28;20050;-87
2023/07/01 03:53:19;;;;;;;29.98;18.30;;;;;;;18.02;100.00;97667.59;2582907;28;20401;-86
2023/07/01 03:54:34;;;;;;;32.28;17.33;;;;;;;18.11;100.00;97664.34;2582411;28;20050;-87
2023/07/01 03:55:50;;;;;;;29.30;17.92;;;;;;;18.04;100.00;97660.47;2582466;28;20084;-87
2023/07/01 03:57:06;;;;;;;25.90;17.35;;;;;;;18.08;100.00;97664.56;2581507;28;20046;-87
2023/07/01 03:58:21;;;;;;;28.90;17.83;;;;;;;18.25;100.00;97671.31;2581151;28;20054;-88
2023/07/01 03:59:37;;;;;;;30.63;16.75;;;;;;;18.06;100.00;97664.66;2581456;28;20583;-88
2023/07/01 04:00:53;;;;;;;34.00;18.80;;;;;;;18.17;100.00;97668.38;2583430;28;20111;-87
2023/07/01 04:02:10;;;;;;;37.67;18.23;;;;;;;18.21;100.00;97668.03;2582470;28;20046;-87
2023/07/01 04:03:26;;;;;;;29.52;18.20;;;;;;;18.15;100.00;97670.28;2584281;28;20057;-87
2023/07/01 04:04:42;;;;;;;31.83;18.90;;;;;;;18.16;100.00;97678.13;2581888;28;20053;-87
2023/07/01 04:05:58;;;;;;;28.13;17.10;;;;;;;18.13;100.00;97674.84;2581597;28;20046;-87
2023/07/01 04:07:13;;;;;;;27.58;16.95;;;;;;;17.91;100.00;97677.19;2585049;28;20176;-87
2023/07/01 04:08:29;;;;;;;32.35;17.92;;;;;;;18.12;100.00;97679.28;2585022;28;20073;-88
2023/07/01 04:09:44;;;;;;;26.77;16.63;;;;;;;18.13;100.00;97677.50;2583412;28;20046;-87
2023/07/01 04:11:00;;;;;;;28.15;17.25;;;;;;;18.16;100.00;97678.13;2582969;28;20134;-86
2023/07/01 04:12:16;;;;;;;24.42;15.82;;;;;;;18.05;100.00;97676.22;2589048;28;20072;-88
2023/07/01 04:13:32;;;;;;;26.92;16.63;;;;;;;17.92;100.00;97676.22;2587884;28;20060;-88
2023/07/01 04:14:47;;;;;;;27.45;17.13;;;;;;;18.06;100.00;97682.38;2586907;28;20050;-87
2023/07/01 04:16:03;;;;;;;28.27;17.38;;;;;;;18.04;100.00;97679.84;2584590;28;20050;-88
2023/07/01 04:17:19;;;;;;;28.92;16.33;;;;;;;18.20;100.00;97679.59;2583065;28;20050;-88
2023/07/01 04:18:35;;;;;;;27.10;16.15;;;;;;;18.15;100.00;97679.06;2584501;28;20050;-87
2023/07/01 04:19:50;;;;;;;29.50;16.30;;;;;;;18.24;100.00;97676.72;2582003;28;20108;-88
2023/07/01 04:21:06;;;;;;;28.13;16.48;;;;;;;18.22;100.00;97679.47;2583309;28;20057;-87
2023/07/01 04:22:23;;;;;;;24.98;14.63;;;;;;;17.92;100.00;97680.66;2581972;28;20061;-88
2023/07/01 04:23:38;;;;;;;25.60;15.85;;;;;;;18.08;100.00;97680.47;2582316;28;20078;-88
2023/07/01 04:24:54;;;;;;;23.77;14.52;;;;;;;17.81;100.00;97681.44;2581760;28;20828;-88
2023/07/01 04:26:09;;;;;;;24.95;14.88;;;;;;;17.99;100.00;97676.63;2583264;28;20490;-86
2023/07/01 04:27:25;;;;;;;23.33;14.25;;;;;;;17.86;100.00;97671.34;2583491;28;20061;-87
2023/07/01 04:28:41;;;;;;;23.42;14.50;;;;;;;17.98;100.00;97674.09;2583917;28;20054;-89
2023/07/01 04:29:56;;;;;;;24.85;15.15;;;;;;;18.13;100.00;97677.50;2585191;28;20050;-88
2023/07/01 04:31:12;;;;;;;23.30;14.25;;;;;;;18.37;100.00;97674.00;2583394;28;20117;-88
2023/07/01 04:32:30;;;;;;;22.75;14.80;;;;;;;18.37;100.00;97669.56;2583461;28;20089;-88
2023/07/01 04:33:45;;;;;;;25.42;15.07;;;;;;;18.53;100.00;97668.44;2583182;28;20593;-88
2023/07/01 04:35:01;;;;;;;23.00;14.85;;;;;;;18.46;100.00;97668.91;2583664;28;20062;-87
2023/07/01 04:36:17;;;;;;;24.35;15.90;;;;;;;18.40;100.00;97669.34;2583327;28;20058;-87
2023/07/01 04:37:33;;;;;;;24.15;15.05;;;;;;;18.47;100.00;97661.78;2585854;28;20046;-86
2023/07/01 04:38:49;;;;;;;25.92;14.75;;;;;;;18.47;100.00;97667.09;2586036;28;20046;-87
2023/07/01 04:40:05;;;;;;;24.20;14.77;;;;;;;18.43;100.00;97663.81;2585008;28;20084;-88
2023/07/01 04:41:21;;;;;;;25.67;14.73;;;;;;;18.30;100.00;97665.66;2582973;28;20074;-88
2023/07/01 04:42:44;;;;;;;25.30;15.10;;;;;;;18.44;100.00;97664.69;2592238;28;20050;-88
2023/07/01 04:44:00;;;;;;;23.55;14.68;;;;;;;18.54;100.00;97664.84;2589307;28;20133;-87
2023/07/01 04:45:18;;;;;;;23.92;14.75;;;;;;;18.57;100.00;97662.81;2585137;28;20425;-87
2023/07/01 04:46:34;;;;;;;25.42;15.05;;;;;;;18.63;100.00;97664.19;2582978;28;20054;-86
2023/07/01 04:47:49;;;;;;;23.02;14.40;;;;;;;18.58;100.00;97668.97;2582734;28;20841;-87
2023/07/01 04:49:05;;;;;;;24.02;15.07;;;;;;;18.62;100.00;97667.78;2584053;28;20054;-88
2023/07/01 04:50:21;;;;;;;22.13;14.27;;;;;;;18.65;100.00;97664.91;2585117;28;20469;-87
2023/07/01 04:51:36;;;;;;;24.10;15.18;;;;;;;18.66;100.00;97666.59;2584599;28;20054;-87
2023/07/01 04:52:52;;;;;;;23.77;14.65;;;;;;;18.61;100.00;97664.28;2584784;28;20054;-87
2023/07/01 04:54:07;;;;;;;22.23;14.35;;;;;;;18.70;100.00;97667.22;2592121;28;20053;-87
2023/07/01 04:55:23;;;;;;;23.05;14.95;;;;;;;18.44;100.00;97664.69;2589767;28;20084;-87
2023/07/01 04:56:38;;;;;;;24.67;13.98;;;;;;;18.57;100.00;97667.25;2583048;28;20133;-87
2023/07/01 04:57:54;;;;;;;22.80;13.95;;;;;;;18.40;100.00;97669.34;2584485;28;20054;-87
2023/07/01 04:59:09;;;;;;;22.50;14.95;;;;;;;18.46;100.00;97663.63;2584095;28;20053;-86
2023/07/01 05:00:25;;;;;;;21.33;14.25;;;;;;;18.39;100.00;97662.34;2584277;28;20081;-86
2023/07/01 05:01:41;;;;;;;21.45;13.90;;;;;;;18.17;100.00;97661.28;2583758;28;20050;-87
2023/07/01 05:02:56;;;;;;;22.17;14.27;;;;;;;18.33;100.00;97668.13;2584624;28;20073;-86
2023/07/01 05:04:12;;;;;;;23.35;13.75;;;;;;;18.29;100.00;97670.13;2583938;28;20050;-86
2023/07/01 05:05:27;;;;;;;21.17;13.65;;;;;;;18.34;100.00;97667.16;2584005;28;20061;-87
2023/07/01 05:06:43;;;;;;;27.90;15.23;;;;;;;18.51;100.00;97654.47;2585722;28;20058;-87
2023/07/01 05:07:58;;;;;;;23.05;14.65;;;;;;;18.44;100.00;97659.38;2584707;28;20047;-87
2023/07/01 05:09:14;;;;;;;19.95;11.85;;;;;;;18.10;100.00;97661.81;2584359;28;20042;-86
2023/07/01 05:10:29;;;;;;;22.33;13.60;;;;;;;18.52;100.00;97661.47;2585264;28;20050;-86
2023/07/01 05:11:45;;;;;;;23.60;14.15;;;;;;;18.32;100.00;97656.66;2585284;28;20099;-87
2023/07/01 05:13:00;;;;;;;20.10;12.52;;;;;;;18.08;100.00;97667.22;2584403;28;20054;-87
2023/07/01 05:14:16;;;;;;;22.45;13.13;;;;;;;18.29;100.00;97664.84;2584130;28;20057;-86
2023/07/01 05:15:32;;;;;;;20.92;12.77;;;;;;;18.10;100.00;97670.59;2582383;28;20103;-86
2023/07/01 05:16:47;;;;;;;20.92;13.60;;;;;;;18.21;100.00;97668.03;2583581;28;20054;-86
2023/07/01 05:18:03;;;;;;;19.80;13.40;;;;;;;18.44;100.00;97668.19;2582455;28;20058;-87
2023/07/01 05:19:19;;;;;;;23.30;13.57;;;;;;;18.33;100.00;97661.00;2583864;28;20050;-88
2023/07/01 05:20:34;;;;;;;24.02;14.55;;;;;;;18.15;100.00;97668.47;2582963;28;20045;-87
2023/07/01 05:21:51;;;;;;;27.27;14.98;;;;;;;18.43;100.00;97662.97;2583742;28;20548;-87
2023/07/01 05:23:07;;;;;;;21.50;14.25;;;;;;;18.29;100.00;97666.63;2582992;28;20471;-87
2023/07/01 05:24:23;;;;;;;23.15;14.18;;;;;;;18.26;100.00;97662.41;2583620;28;20413;-88
2023/07/01 05:25:40;;;;;;;27.05;15.15;;;;;;;18.44;100.00;97665.53;2583177;28;20053;-88
2023/07/01 05:26:55;;;;;;;25.25;14.60;;;;;;;18.21;100.00;97667.19;2582986;28;20049;-88
2023/07/01 05:28:11;;;;;;;21.73;14.48;;;;;;;18.45;100.00;97658.41;2584168;28;20046;-89
2023/07/01 05:29:28;;;;;;;22.83;13.93;;;;;;;18.62;100.00;97665.13;2583667;28;20118;-90
2023/07/01 05:30:43;;;;;;;23.15;13.75;;;;;;;18.35;100.00;97664.38;2583144;28;20057;-90
2023/07/01 05:31:59;;;;;;;23.05;13.65;;;;;;;18.35;100.00;97666.19;2582943;28;20046;-89
2023/07/01 05:33:15;;;;;;;21.17;13.10;;;;;;;18.61;100.00;97672.22;2583192;28;20050;-89
2023/07/01 05:34:31;;;;;;;24.90;14.05;;;;;;;18.68;100.00;97662.03;2582418;28;20363;-88
2023/07/01 05:35:46;;;;;;;24.60;13.77;;;;;;;18.82;100.00;97665.44;2582853;28;20063;-89
2023/07/01 05:37:02;;;;;;;20.85;12.68;;;;;;;18.53;100.00;97669.31;2583593;28;20041;-89
2023/07/01 05:38:18;;;;;;;18.63;12.20;;;;;;;18.57;100.00;97667.25;2582987;28;20050;-89
2023/07/01 05:39:33;;;;;;;22.58;13.90;;;;;;;18.41;100.00;97662.25;2582904;28;20505;-90
2023/07/01 05:40:49;;;;;;;19.55;11.50;;;;;;;18.25;100.00;97667.81;2592638;28;20408;-89
2023/07/01 05:42:05;;;;;;;20.88;12.52;;;;;;;18.56;100.00;97662.91;2588308;28;20068;-90
2023/07/01 05:43:20;;;;;;;20.25;13.25;;;;;;;18.88;100.00;97670.31;2583270;28;20137;-90
2023/07/01 05:44:36;;;;;;;19.45;12.25;;;;;;;18.70;100.00;97676.00;2583240;28;20156;-89
2023/07/01 05:45:52;;;;;;;16.73;10.63;;;;;;;18.38;100.00;97667.78;2583115;28;20041;-89
2023/07/01 05:47:07;;;;;;;22.52;12.07;;;;;;;18.55;100.00;97672.69;2593240;28;20460;-89
2023/07/01 05:48:23;;;;;;;22.90;13.35;;;;;;;19.01;100.00;97678.22;2587103;28;20414;-89